createdAt,value
2019-01-21T00:00:58.265Z,92.50
2019-01-21T00:03:27.369Z,92.31
2019-01-21T00:05:56.476Z,92.50
2019-01-21T00:08:25.560Z,92.55
2019-01-21T00:10:54.674Z,92.58
2019-01-21T00:13:23.808Z,92.68
2019-01-21T00:15:52.960Z,92.75
2019-01-21T00:18:22.036Z,92.89
2019-01-21T00:20:51.139Z,93.62
2019-01-21T00:23:20.264Z,94.46
2019-01-21T00:25:49.337Z,94.91
2019-01-21T00:28:20.068Z,94.78
2019-01-21T00:30:49.215Z,94.60
2019-01-21T00:33:18.300Z,94.68
2019-01-21T00:35:47.389Z,94.29
2019-01-21T00:38:16.497Z,94.31
2019-01-21T00:40:45.585Z,94.26
2019-01-21T00:43:14.701Z,94.42
2019-01-21T00:45:43.792Z,94.29
2019-01-21T00:48:12.932Z,94.31
2019-01-21T00:50:42.033Z,94.00
2019-01-21T00:53:11.136Z,93.95
2019-01-21T00:55:40.261Z,94.02
2019-01-21T00:58:09.360Z,94.00
2019-01-21T01:00:38.458Z,93.86
2019-01-21T01:03:07.869Z,93.63
2019-01-21T01:05:36.959Z,92.74
2019-01-21T01:08:06.236Z,90.67
2019-01-21T01:10:35.328Z,91.36
2019-01-21T01:13:04.444Z,93.29
2019-01-21T01:15:33.528Z,94.17
2019-01-21T01:18:02.645Z,94.46
2019-01-21T01:20:31.731Z,94.42
2019-01-21T01:23:00.858Z,94.23
2019-01-21T01:25:29.948Z,93.79
2019-01-21T01:27:59.122Z,93.80
2019-01-21T01:30:28.164Z,93.66
2019-01-21T01:32:57.264Z,93.63
2019-01-21T01:35:26.377Z,93.56
2019-01-21T01:37:55.468Z,92.94
2019-01-21T01:40:24.573Z,92.84
2019-01-21T01:42:53.660Z,92.38
2019-01-21T01:45:24.709Z,92.78
2019-01-21T01:48:03.773Z,92.71
2019-01-21T01:50:32.997Z,92.95
2019-01-21T01:53:02.109Z,93.46
2019-01-21T01:55:31.980Z,93.85
2019-01-21T01:58:02.591Z,93.30
2019-01-21T02:00:31.797Z,93.39
2019-01-21T02:03:00.988Z,93.56
2019-01-21T02:05:30.093Z,93.78
2019-01-21T02:07:59.382Z,94.08
2019-01-21T02:10:28.770Z,94.21
2019-01-21T02:12:57.861Z,93.73
2019-01-21T02:15:26.965Z,92.99
2019-01-21T02:17:56.043Z,92.57
2019-01-21T02:20:25.152Z,92.86
2019-01-21T02:23:01.693Z,92.51
2019-01-21T02:25:50.452Z,92.47
2019-01-21T02:28:49.708Z,92.00
2019-01-21T02:31:48.329Z,92.15
2019-01-21T02:35:04.692Z,91.67
2019-01-21T02:38:14.710Z,91.36
2019-01-21T02:41:24.626Z,91.84
2019-01-21T02:44:24.357Z,93.20
2019-01-21T02:47:18.697Z,93.12
2019-01-21T02:50:06.037Z,92.47
2019-01-21T02:52:50.236Z,91.77
2019-01-21T02:56:00.106Z,91.70
2019-01-21T02:58:40.917Z,91.96
2019-01-21T03:01:37.588Z,92.12
2019-01-21T03:04:34.643Z,92.26
2019-01-21T03:07:23.339Z,91.71
2019-01-21T03:10:13.992Z,91.37
2019-01-21T03:13:01.279Z,91.15
2019-01-21T03:16:00.313Z,91.50
2019-01-21T03:19:37.590Z,91.77
2019-01-21T03:22:31.747Z,91.71
2019-01-21T03:25:33.228Z,91.73
2019-01-21T03:28:39.067Z,91.88
2019-01-21T03:31:43.698Z,91.76
2019-01-21T03:34:34.572Z,91.79
2019-01-21T03:37:43.358Z,91.96
2019-01-21T03:40:40.891Z,91.74
2019-01-21T03:44:04.606Z,91.25
2019-01-21T03:47:11.244Z,91.27
2019-01-21T03:50:03.715Z,91.48
2019-01-21T03:52:44.526Z,91.76
2019-01-21T03:55:15.890Z,91.70
2019-01-21T03:58:37.022Z,91.29
2019-01-21T04:01:19.144Z,90.64
2019-01-21T04:04:10.196Z,90.64
2019-01-21T04:07:04.637Z,91.33
2019-01-21T04:10:11.909Z,91.25
2019-01-21T04:13:01.794Z,91.50
2019-01-21T04:16:16.360Z,91.93
2019-01-21T04:19:30.079Z,92.03
2019-01-21T04:22:36.563Z,91.96
2019-01-21T04:25:32.084Z,90.95
2019-01-21T04:28:22.303Z,90.53
2019-01-21T04:31:22.931Z,90.56
2019-01-21T04:34:05.803Z,90.34
2019-01-21T04:37:27.817Z,89.88
2019-01-21T04:40:14.162Z,89.96
2019-01-21T04:43:27.173Z,89.92
2019-01-21T04:46:29.796Z,90.32
2019-01-21T04:49:09.351Z,90.88
2019-01-21T04:52:06.046Z,90.29
2019-01-21T04:55:10.177Z,90.36
2019-01-21T04:58:02.049Z,90.12
2019-01-21T05:01:03.534Z,90.29
2019-01-21T05:04:12.133Z,90.47
2019-01-21T05:07:25.300Z,91.02
2019-01-21T05:10:21.977Z,90.65
2019-01-21T05:13:27.191Z,90.26
2019-01-21T05:16:41.220Z,90.11
2019-01-21T05:19:41.042Z,90.08
2019-01-21T05:25:07.998Z,90.42
2019-01-21T05:28:33.342Z,91.08
2019-01-21T05:31:35.455Z,90.98
2019-01-21T05:34:33.087Z,91.49
2019-01-21T05:37:35.481Z,91.99
2019-01-21T05:40:41.126Z,91.19
2019-01-21T05:43:46.957Z,90.79
2019-01-21T05:46:45.061Z,91.00
2019-01-21T05:50:04.070Z,90.57
2019-01-21T05:53:15.768Z,90.27
2019-01-21T05:56:40.938Z,90.19
2019-01-21T06:00:01.821Z,90.29
2019-01-21T06:03:09.545Z,90.49
2019-01-21T06:06:24.929Z,90.45
2019-01-21T06:09:29.690Z,90.70
2019-01-21T06:12:05.566Z,91.12
2019-01-21T06:15:18.666Z,91.83
2019-01-21T06:18:08.877Z,92.81
2019-01-21T06:21:13.468Z,93.67
2019-01-21T06:24:30.136Z,93.30
2019-01-21T06:27:39.222Z,93.23
2019-01-21T06:31:07.092Z,93.59
2019-01-21T06:34:04.481Z,93.37
2019-01-21T06:37:06.972Z,93.25
2019-01-21T06:40:27.543Z,93.41
2019-01-21T06:43:22.033Z,93.46
2019-01-21T06:46:50.296Z,93.36
2019-01-21T06:50:02.571Z,93.27
2019-01-21T06:52:59.119Z,93.41
2019-01-21T06:56:10.895Z,92.70
2019-01-21T06:59:35.800Z,92.41
2019-01-21T07:02:44.831Z,92.66
2019-01-21T07:05:54.856Z,92.58
2019-01-21T07:08:43.293Z,92.32
2019-01-21T07:11:40.870Z,92.03
2019-01-21T07:14:50.129Z,91.86
2019-01-21T07:18:10.765Z,92.28
2019-01-21T07:21:27.168Z,92.21
2019-01-21T07:24:21.904Z,91.93
2019-01-21T07:27:35.069Z,92.00
2019-01-21T07:30:45.477Z,92.00
2019-01-21T07:33:42.827Z,92.00
2019-01-21T07:36:31.641Z,91.65
2019-01-21T07:39:59.516Z,90.61
2019-01-21T07:42:58.547Z,90.75
2019-01-21T07:46:09.663Z,90.84
2019-01-21T07:49:26.783Z,90.52
2019-01-21T07:52:33.129Z,90.26
2019-01-21T07:55:10.631Z,89.19
2019-01-21T07:58:26.576Z,89.54
2019-01-21T08:01:21.438Z,89.42
2019-01-21T08:04:32.769Z,88.69
2019-01-21T08:07:29.222Z,88.70
2019-01-21T08:10:36.841Z,87.85
2019-01-21T08:13:41.465Z,88.17
2019-01-21T08:17:15.507Z,87.68
2019-01-21T08:20:17.884Z,86.67
2019-01-21T08:23:30.435Z,84.76
2019-01-21T08:26:23.368Z,80.77
2019-01-21T08:29:26.074Z,76.89
2019-01-21T08:32:02.536Z,75.81
2019-01-21T08:35:01.092Z,72.49
2019-01-21T08:38:10.484Z,68.87
2019-01-21T08:41:31.601Z,64.19
2019-01-21T08:44:39.852Z,59.19
2019-01-21T08:47:25.326Z,54.20
2019-01-21T08:50:19.969Z,51.19
2019-01-21T08:53:28.511Z,51.27
2019-01-21T08:56:44.403Z,50.27
2019-01-21T08:59:54.585Z,54.50
2019-01-21T09:03:03.108Z,56.92
2019-01-21T09:06:25.389Z,58.88
2019-01-21T09:09:21.102Z,55.70
2019-01-21T09:12:16.852Z,54.94
2019-01-21T09:15:18.998Z,51.01
2019-01-21T09:18:04.864Z,47.69
2019-01-21T09:21:08.017Z,45.39
2019-01-21T09:23:58.732Z,40.57
2019-01-21T09:26:50.595Z,38.95
2019-01-21T09:30:01.965Z,36.45
2019-01-21T09:33:09.141Z,34.29
2019-01-21T09:36:03.781Z,35.04
2019-01-21T09:39:27.837Z,34.66
2019-01-21T09:42:20.692Z,30.52
2019-01-21T09:45:26.249Z,26.94
2019-01-21T09:47:53.725Z,25.59
2019-01-21T09:50:22.850Z,24.77
2019-01-21T09:52:52.145Z,26.84
2019-01-21T09:55:23.237Z,28.54
2019-01-21T09:58:03.482Z,24.97
2019-01-21T10:00:32.701Z,26.00
2019-01-21T10:03:03.613Z,25.90
2019-01-21T10:05:33.852Z,24.14
2019-01-21T10:08:29.916Z,25.06
2019-01-21T10:11:38.649Z,24.80
2019-01-21T10:14:54.868Z,23.24
2019-01-21T10:17:46.973Z,21.76
2019-01-21T10:20:27.898Z,20.57
2019-01-21T10:23:52.981Z,19.69
2019-01-21T10:26:51.864Z,19.10
2019-01-21T10:29:46.900Z,19.55
2019-01-21T10:32:55.784Z,20.31
2019-01-21T10:36:03.895Z,20.42
2019-01-21T10:39:38.150Z,20.13
2019-01-21T10:42:32.193Z,21.03
2019-01-21T10:45:36.704Z,21.96
2019-01-21T10:48:24.424Z,21.33
2019-01-21T10:51:25.707Z,21.59
2019-01-21T10:54:28.190Z,19.64
2019-01-21T10:57:41.306Z,17.90
2019-01-21T11:00:55.865Z,18.80
2019-01-21T11:03:41.765Z,19.32
2019-01-21T11:06:49.047Z,21.52
2019-01-21T11:09:40.022Z,21.74
2019-01-21T11:12:56.300Z,22.00
2019-01-21T11:15:59.573Z,22.84
2019-01-21T11:19:04.380Z,22.17
2019-01-21T11:22:02.822Z,23.14
2019-01-21T11:24:57.917Z,25.00
2019-01-21T11:28:12.808Z,23.33
2019-01-21T11:31:11.837Z,22.37
2019-01-21T11:34:24.832Z,24.57
2019-01-21T11:37:33.721Z,23.09
2019-01-21T11:40:50.126Z,24.34
2019-01-21T11:43:49.930Z,20.59
2019-01-21T11:46:50.753Z,19.75
2019-01-21T11:49:53.635Z,20.94
2019-01-21T11:52:52.012Z,20.98
2019-01-21T11:55:50.193Z,20.05
2019-01-21T11:58:38.058Z,19.78
2019-01-21T12:01:17.032Z,19.54
2019-01-21T12:03:59.138Z,19.71
2019-01-21T12:06:36.908Z,20.22
2019-01-21T12:09:45.207Z,22.89
2019-01-21T12:12:55.239Z,22.97
2019-01-21T12:16:09.976Z,21.47
2019-01-21T12:19:07.960Z,20.56
2019-01-21T12:22:16.223Z,21.45
2019-01-21T12:24:54.425Z,20.25
2019-01-21T12:27:59.904Z,18.89
2019-01-21T12:30:55.754Z,20.59
2019-01-21T12:33:51.768Z,21.60
2019-01-21T12:36:41.463Z,19.51
2019-01-21T12:39:47.917Z,18.23
2019-01-21T12:42:50.607Z,18.91
2019-01-21T12:46:06.013Z,21.84
2019-01-21T12:49:21.880Z,21.38
2019-01-21T12:52:33.808Z,22.30
2019-01-21T12:55:40.454Z,22.45
2019-01-21T12:58:43.360Z,22.76
2019-01-21T13:02:17.180Z,21.34
2019-01-21T13:05:12.683Z,22.05
2019-01-21T13:07:55.267Z,20.20
2019-01-21T13:10:49.906Z,19.06
2019-01-21T13:14:02.064Z,21.33
2019-01-21T13:16:48.532Z,21.42
2019-01-21T13:20:00.664Z,22.13
2019-01-21T13:23:01.249Z,20.07
2019-01-21T13:26:05.864Z,19.89
2019-01-21T13:29:10.764Z,21.86
2019-01-21T13:32:26.334Z,23.21
2019-01-21T13:35:31.049Z,23.32
2019-01-21T13:38:26.717Z,22.11
2019-01-21T13:41:51.013Z,23.94
2019-01-21T13:44:51.707Z,23.91
2019-01-21T13:47:53.573Z,24.86
2019-01-21T13:50:58.633Z,25.61
2019-01-21T13:54:02.762Z,23.56
2019-01-21T13:57:12.907Z,24.97
2019-01-21T14:00:21.040Z,23.51
2019-01-21T14:03:09.155Z,24.83
2019-01-21T14:06:22.684Z,24.73
2019-01-21T14:09:35.613Z,25.51
2019-01-21T14:12:34.786Z,25.24
2019-01-21T14:15:41.616Z,27.26
2019-01-21T14:18:56.252Z,28.35
2019-01-21T14:22:06.584Z,26.45
2019-01-21T14:25:23.008Z,26.97
2019-01-21T14:28:28.608Z,27.65
2019-01-21T14:31:21.193Z,29.45
2019-01-21T14:34:39.501Z,31.06
2019-01-21T14:37:45.378Z,31.06
2019-01-21T14:40:26.536Z,30.28
2019-01-21T14:43:48.821Z,32.56
2019-01-21T14:46:38.733Z,33.59
2019-01-21T14:49:42.036Z,32.27
2019-01-21T14:52:47.015Z,32.96
2019-01-21T14:56:18.178Z,34.69
2019-01-21T14:59:18.455Z,34.08
2019-01-21T15:02:01.898Z,34.94
2019-01-21T15:05:22.751Z,36.93
2019-01-21T15:08:31.478Z,38.00
2019-01-21T15:11:27.984Z,37.36
2019-01-21T15:14:19.725Z,39.40
2019-01-21T15:17:02.241Z,40.41
2019-01-21T15:20:06.669Z,45.23
2019-01-21T15:23:00.669Z,45.03
2019-01-21T15:26:08.466Z,49.38
2019-01-21T15:29:02.153Z,51.53
2019-01-21T15:32:02.727Z,54.06
2019-01-21T15:35:33.968Z,57.55
2019-01-21T15:38:33.497Z,60.16
2019-01-21T15:41:31.501Z,63.76
2019-01-21T15:44:24.704Z,65.77
2019-01-21T15:47:35.975Z,67.57
2019-01-21T15:50:46.051Z,68.64
2019-01-21T15:53:40.136Z,69.88
2019-01-21T15:56:40.497Z,71.16
2019-01-21T15:59:39.241Z,72.06
2019-01-21T16:02:38.644Z,72.71
2019-01-21T16:05:19.528Z,73.61
2019-01-21T16:07:55.912Z,74.55
2019-01-21T16:10:50.836Z,75.09
2019-01-21T16:13:45.664Z,76.14
2019-01-21T16:16:33.489Z,77.51
2019-01-21T16:19:12.280Z,78.33
2019-01-21T16:22:12.992Z,77.02
2019-01-21T16:24:56.008Z,77.06
2019-01-21T16:27:54.076Z,77.38
2019-01-21T16:30:34.042Z,78.25
2019-01-21T16:33:43.392Z,78.56
2019-01-21T16:36:24.066Z,78.64
2019-01-21T16:39:03.180Z,79.93
2019-01-21T16:41:46.655Z,78.94
2019-01-21T16:44:15.744Z,80.27
2019-01-21T16:46:44.849Z,81.45
2019-01-21T16:49:13.949Z,82.66
2019-01-21T16:51:43.086Z,82.84
2019-01-21T16:54:12.847Z,82.56
2019-01-21T16:56:41.973Z,82.41
2019-01-21T16:59:11.058Z,82.90
2019-01-21T17:01:40.212Z,82.69
2019-01-21T17:04:09.248Z,82.66
2019-01-21T17:06:39.528Z,82.65
2019-01-21T17:09:11.013Z,83.68
2019-01-21T17:11:40.121Z,83.98
2019-01-21T17:14:11.421Z,84.15
2019-01-21T17:16:40.532Z,84.38
2019-01-21T17:19:09.692Z,83.97
2019-01-21T17:21:39.035Z,84.18
2019-01-21T17:24:08.131Z,84.67
2019-01-21T17:26:37.363Z,84.15
2019-01-21T17:29:06.455Z,84.08
2019-01-21T17:31:35.563Z,83.52
2019-01-21T17:34:05.162Z,83.20
2019-01-21T17:36:34.264Z,83.78
2019-01-21T17:39:04.201Z,84.26
2019-01-21T17:41:33.295Z,84.18
2019-01-21T17:44:02.416Z,84.11
2019-01-21T17:46:31.532Z,85.00
2019-01-21T17:49:00.621Z,85.01
2019-01-21T17:51:33.796Z,84.93
2019-01-21T17:54:00.682Z,84.61
2019-01-21T17:56:29.765Z,84.69
2019-01-21T17:58:58.877Z,84.98
2019-01-21T18:01:27.964Z,84.20
2019-01-21T18:03:57.082Z,83.54
2019-01-21T18:06:26.169Z,84.34
2019-01-21T18:08:55.289Z,85.41
2019-01-21T18:11:24.405Z,86.69
2019-01-21T18:13:53.505Z,86.11
2019-01-21T18:16:22.599Z,86.04
2019-01-21T18:18:51.708Z,86.60
2019-01-21T18:21:20.797Z,86.70
2019-01-21T18:23:49.922Z,86.94
2019-01-21T18:26:19.025Z,86.48
2019-01-21T18:28:48.129Z,86.08
2019-01-21T18:31:17.230Z,86.25
2019-01-21T18:33:46.346Z,86.25
2019-01-21T18:36:15.543Z,85.68
2019-01-21T18:38:44.734Z,85.92
2019-01-21T18:41:13.837Z,86.77
2019-01-21T18:43:43.065Z,87.24
2019-01-21T18:46:12.171Z,86.63
2019-01-21T18:48:41.281Z,86.60
2019-01-21T18:51:10.404Z,86.85
2019-01-21T18:53:39.521Z,86.64
2019-01-21T18:56:08.615Z,86.68
2019-01-21T18:58:37.740Z,86.94
2019-01-21T19:01:06.829Z,86.69
2019-01-21T19:03:35.935Z,87.26
2019-01-21T19:06:05.126Z,87.98
2019-01-21T19:08:34.237Z,87.72
2019-01-21T19:11:03.338Z,88.09
2019-01-21T19:13:32.420Z,88.45
2019-01-21T19:16:01.534Z,89.13
2019-01-21T19:18:30.624Z,89.81
2019-01-21T19:20:59.733Z,89.21
2019-01-21T19:23:28.837Z,87.94
2019-01-21T19:25:57.961Z,88.71
2019-01-21T19:28:27.048Z,89.38
2019-01-21T19:30:56.177Z,89.42
2019-01-21T19:33:25.267Z,88.92
2019-01-21T19:35:54.376Z,88.34
2019-01-21T19:38:23.461Z,88.46
2019-01-21T19:40:52.568Z,88.68
2019-01-21T19:43:21.653Z,88.58
2019-01-21T19:45:50.759Z,88.17
2019-01-21T19:48:19.848Z,88.03
2019-01-21T19:50:48.993Z,87.99
2019-01-21T19:53:18.078Z,88.58
2019-01-21T19:55:47.195Z,89.14
2019-01-21T19:58:17.183Z,88.70
2019-01-21T20:00:46.310Z,88.86
2019-01-21T20:03:15.413Z,89.03
2019-01-21T20:05:44.529Z,88.99
2019-01-21T20:08:13.618Z,89.13
2019-01-21T20:10:42.725Z,88.64
2019-01-21T20:13:11.816Z,88.93
2019-01-21T20:15:40.926Z,89.05
2019-01-21T20:18:10.008Z,88.55
2019-01-21T20:20:40.782Z,88.12
2019-01-21T20:23:09.922Z,87.74
2019-01-21T20:25:39.032Z,88.03
2019-01-21T20:28:08.155Z,88.20
2019-01-21T20:30:37.272Z,88.39
2019-01-21T20:33:06.468Z,88.56
2019-01-21T20:35:35.585Z,89.30
2019-01-21T20:38:04.777Z,88.86
2019-01-21T20:40:33.886Z,89.10
2019-01-21T20:43:02.980Z,88.43
2019-01-21T20:45:32.089Z,89.04
2019-01-21T20:48:01.177Z,89.18
2019-01-21T20:50:31.037Z,89.24
2019-01-21T20:53:00.136Z,89.17
2019-01-21T20:55:29.254Z,89.18
2019-01-21T20:57:58.338Z,89.18
2019-01-21T21:00:28.746Z,89.32
2019-01-21T21:02:58.424Z,89.69
2019-01-21T21:05:27.544Z,89.87
2019-01-21T21:07:56.658Z,89.82
2019-01-21T21:10:25.793Z,89.97
2019-01-21T21:12:54.895Z,89.42
2019-01-21T21:15:26.373Z,89.64
2019-01-21T21:17:55.492Z,89.79
2019-01-21T21:20:24.605Z,89.65
2019-01-21T21:22:53.692Z,89.48
2019-01-21T21:25:22.993Z,88.95
2019-01-21T21:27:52.101Z,88.80
2019-01-21T21:30:23.524Z,88.93
2019-01-21T21:32:52.679Z,89.32
2019-01-21T21:35:22.037Z,89.28
2019-01-21T21:37:51.146Z,89.52
2019-01-21T21:40:20.699Z,89.70
2019-01-21T21:42:49.804Z,89.74
2019-01-21T21:45:19.415Z,89.46
2019-01-21T21:47:48.561Z,89.41
2019-01-21T21:50:20.129Z,89.87
2019-01-21T21:52:49.268Z,89.76
2019-01-21T21:55:18.357Z,89.53
2019-01-21T21:57:47.478Z,89.75
2019-01-21T22:00:19.177Z,89.72
2019-01-21T22:02:48.288Z,89.36
2019-01-21T22:05:17.681Z,89.27
2019-01-21T22:07:46.790Z,90.11
2019-01-21T22:10:19.779Z,89.98
2019-01-21T22:12:48.181Z,89.83
2019-01-21T22:15:18.889Z,90.07
2019-01-21T22:17:48.006Z,90.43
2019-01-21T22:20:18.700Z,91.11
2019-01-21T22:22:47.821Z,91.55
2019-01-21T22:25:17.185Z,90.92
2019-01-21T22:27:46.296Z,89.72
2019-01-21T22:30:17.770Z,88.82
2019-01-21T22:32:46.891Z,88.69
2019-01-21T22:35:15.999Z,88.72
2019-01-21T22:37:45.390Z,88.79
2019-01-21T22:40:16.356Z,89.07
2019-01-21T22:42:45.484Z,89.63
2019-01-21T22:45:15.509Z,89.02
2019-01-21T22:47:44.654Z,88.15
2019-01-21T22:50:14.346Z,88.04
2019-01-21T22:52:43.481Z,88.14
2019-01-21T22:55:13.651Z,88.70
2019-01-21T22:57:42.764Z,88.69
2019-01-21T23:00:53.097Z,88.61
2019-01-21T23:03:22.353Z,88.62
2019-01-21T23:05:51.437Z,88.77
2019-01-21T23:08:20.918Z,89.43
2019-01-21T23:10:50.001Z,89.80
2019-01-21T23:13:19.109Z,90.23
2019-01-21T23:15:48.201Z,89.48
2019-01-21T23:18:17.307Z,88.80
2019-01-21T23:20:46.387Z,88.63
2019-01-21T23:23:15.528Z,88.98
2019-01-21T23:25:44.622Z,89.06
2019-01-21T23:28:13.726Z,88.92
2019-01-21T23:30:42.817Z,88.78
2019-01-21T23:33:11.920Z,88.69
2019-01-21T23:35:41.000Z,88.81
2019-01-21T23:38:10.113Z,89.22
2019-01-21T23:40:39.200Z,89.44
2019-01-21T23:43:08.311Z,89.27
2019-01-21T23:45:37.399Z,89.30
2019-01-21T23:48:06.680Z,88.87
2019-01-21T23:50:35.779Z,88.89
2019-01-21T23:53:05.301Z,88.41
2019-01-21T23:55:34.383Z,88.83
2019-01-21T23:58:03.484Z,88.33
